createdAt,value
2022-08-09T00:01:55.267Z,12.14
2022-08-09T00:04:34.103Z,12.14
2022-08-09T00:07:07.704Z,12.11
2022-08-09T00:09:39.867Z,12.27
2022-08-09T00:12:15.526Z,12.12
2022-08-09T00:14:54.440Z,12.15
2022-08-09T00:18:10.223Z,12.05
2022-08-09T00:20:14.053Z,11.39
2022-08-09T00:22:44.842Z,11.84
2022-08-09T00:25:23.410Z,11.45
2022-08-09T00:28:01.106Z,11.73
2022-08-09T00:30:35.220Z,11.73
2022-08-09T00:33:03.858Z,11.74
2022-08-09T00:35:42.716Z,11.80
2022-08-09T00:38:13.122Z,11.70
2022-08-09T00:40:52.865Z,11.69
2022-08-09T00:44:11.527Z,11.51
2022-08-09T00:46:11.351Z,11.56
2022-08-09T00:48:56.897Z,11.07
2022-08-09T00:51:28.298Z,11.52
2022-08-09T00:54:03.044Z,11.51
2022-08-09T00:56:31.130Z,11.07
2022-08-09T00:58:59.386Z,11.38
2022-08-09T01:01:44.657Z,11.44
2022-08-09T01:05:14.138Z,11.25
2022-08-09T01:08:16.234Z,10.96
2022-08-09T01:11:15.023Z,11.19
2022-08-09T01:13:59.898Z,11.15
2022-08-09T01:16:39.549Z,10.95
2022-08-09T01:19:42.599Z,11.16
2022-08-09T01:23:01.550Z,11.14
2022-08-09T01:26:16.443Z,10.89
2022-08-09T01:28:50.657Z,11.11
2022-08-09T01:32:30.624Z,11.11
2022-08-09T01:34:20.273Z,10.89
2022-08-09T01:36:50.462Z,10.97
2022-08-09T01:39:23.305Z,10.90
2022-08-09T01:42:00.550Z,10.76
2022-08-09T01:44:32.020Z,10.75
2022-08-09T01:47:02.999Z,10.39
2022-08-09T01:49:39.251Z,10.69
2022-08-09T01:52:16.386Z,10.86
2022-08-09T01:54:54.098Z,10.89
2022-08-09T01:57:45.830Z,10.92
2022-08-09T02:00:34.901Z,10.70
2022-08-09T02:03:04.980Z,10.89
2022-08-09T02:06:04.182Z,10.85
2022-08-09T02:08:38.550Z,10.82
2022-08-09T02:11:17.033Z,10.75
2022-08-09T02:14:02.172Z,10.76
2022-08-09T02:16:59.092Z,10.71
2022-08-09T02:19:38.737Z,10.61
2022-08-09T02:22:31.559Z,10.43
2022-08-09T02:25:08.367Z,10.50
2022-08-09T02:27:57.380Z,10.53
2022-08-09T02:30:31.984Z,10.57
2022-08-09T02:33:01.326Z,10.54
2022-08-09T02:36:03.247Z,10.57
2022-08-09T02:38:28.930Z,10.34
2022-08-09T02:41:06.593Z,10.30
2022-08-09T02:43:42.447Z,10.05
2022-08-09T02:46:27.927Z,10.27
2022-08-09T02:49:03.083Z,10.34
2022-08-09T02:51:40.479Z,10.33
2022-08-09T02:54:14.353Z,10.29
2022-08-09T02:56:51.243Z,10.26
2022-08-09T02:59:26.203Z,10.22
2022-08-09T03:02:12.316Z,10.07
2022-08-09T03:04:50.651Z,10.07
2022-08-09T03:07:20.410Z,10.00
2022-08-09T03:09:54.474Z,10.01
2022-08-09T03:12:29.022Z,10.03
2022-08-09T03:14:58.429Z,10.05
2022-08-09T03:17:28.390Z,10.06
2022-08-09T03:20:05.345Z,9.98
2022-08-09T03:22:41.971Z,10.01
2022-08-09T03:25:26.955Z,9.83
2022-08-09T03:28:04.401Z,9.97
2022-08-09T03:30:40.305Z,10.06
2022-08-09T03:33:18.690Z,9.56
2022-08-09T03:36:13.061Z,10.02
2022-08-09T03:38:43.451Z,10.13
2022-08-09T03:41:16.430Z,10.19
2022-08-09T03:43:51.693Z,10.26
2022-08-09T03:46:36.994Z,10.31
2022-08-09T03:49:08.174Z,10.39
2022-08-09T03:51:58.324Z,10.12
2022-08-09T03:54:34.947Z,10.17
2022-08-09T03:57:18.777Z,10.77
2022-08-09T03:59:55.974Z,10.90
2022-08-09T04:02:31.176Z,10.99
2022-08-09T04:05:06.677Z,11.20
2022-08-09T04:07:53.051Z,11.35
2022-08-09T04:10:29.239Z,11.43
2022-08-09T04:13:03.982Z,11.49
2022-08-09T04:16:18.234Z,11.67
2022-08-09T04:18:21.591Z,11.75
2022-08-09T04:20:51.253Z,11.87
2022-08-09T04:23:24.271Z,11.91
2022-08-09T04:25:55.810Z,12.33
2022-08-09T04:28:33.688Z,12.48
2022-08-09T04:31:09.946Z,12.68
2022-08-09T04:33:47.695Z,12.93
2022-08-09T04:36:28.759Z,13.44
2022-08-09T04:39:00.869Z,13.74
2022-08-09T04:41:33.220Z,14.09
2022-08-09T04:44:06.289Z,14.50
2022-08-09T04:46:58.932Z,14.91
2022-08-09T04:49:53.709Z,15.39
2022-08-09T04:52:27.638Z,15.62
2022-08-09T04:55:02.404Z,15.82
2022-08-09T04:57:59.432Z,15.99
2022-08-09T05:00:21.099Z,16.40
2022-08-09T05:02:52.727Z,16.65
2022-08-09T05:05:32.304Z,16.93
2022-08-09T05:08:14.048Z,17.13
2022-08-09T05:10:43.963Z,17.19
2022-08-09T05:13:14.384Z,17.36
2022-08-09T05:15:48.270Z,17.58
2022-08-09T05:18:50.919Z,17.63
2022-08-09T05:21:23.298Z,17.99
2022-08-09T05:24:01.193Z,18.54
2022-08-09T05:26:45.624Z,18.68
2022-08-09T05:29:24.183Z,18.56
2022-08-09T05:31:58.391Z,18.69
2022-08-09T05:34:31.068Z,19.02
2022-08-09T05:37:11.213Z,19.18
2022-08-09T05:39:43.761Z,19.41
2022-08-09T05:42:17.496Z,19.37
2022-08-09T05:44:54.297Z,19.72
2022-08-09T05:47:27.322Z,19.85
2022-08-09T05:50:25.157Z,20.25
2022-08-09T05:52:53.440Z,20.35
2022-08-09T05:55:24.102Z,20.54
2022-08-09T05:57:56.627Z,20.34
2022-08-09T06:00:32.943Z,20.21
2022-08-09T06:03:03.711Z,21.02
2022-08-09T06:05:57.839Z,21.25
2022-08-09T06:08:24.200Z,21.19
2022-08-09T06:10:55.854Z,21.41
2022-08-09T06:13:25.354Z,21.68
2022-08-09T06:15:56.713Z,21.78
2022-08-09T06:18:25.897Z,22.01
2022-08-09T06:20:58.640Z,22.57
2022-08-09T06:23:58.820Z,22.66
2022-08-09T06:26:20.560Z,22.80
2022-08-09T06:29:00.770Z,23.08
2022-08-09T06:31:39.862Z,22.99
2022-08-09T06:34:23.587Z,23.13
2022-08-09T06:36:59.597Z,23.58
2022-08-09T06:39:49.105Z,23.87
2022-08-09T06:42:30.320Z,23.85
2022-08-09T06:45:00.296Z,23.88
2022-08-09T06:47:39.706Z,23.59
2022-08-09T06:50:18.972Z,24.10
2022-08-09T06:52:48.753Z,24.33
2022-08-09T06:55:22.425Z,24.44
2022-08-09T06:58:01.819Z,24.53
2022-08-09T07:00:49.342Z,24.75
2022-08-09T07:03:27.988Z,24.70
2022-08-09T07:06:04.114Z,25.27
2022-08-09T07:08:37.385Z,25.47
2022-08-09T07:11:12.640Z,25.45
2022-08-09T07:14:04.145Z,25.40
2022-08-09T07:16:41.121Z,25.68
2022-08-09T07:19:15.070Z,25.98
2022-08-09T07:21:50.108Z,26.09
2022-08-09T07:24:32.143Z,26.29
2022-08-09T07:27:27.128Z,26.54
2022-08-09T07:30:02.283Z,26.27
2022-08-09T07:32:32.303Z,26.16
2022-08-09T07:35:10.569Z,26.68
2022-08-09T07:37:44.433Z,26.77
2022-08-09T07:40:18.809Z,27.25
2022-08-09T07:43:00.258Z,26.98
2022-08-09T07:45:40.416Z,27.25
2022-08-09T07:48:28.342Z,27.40
2022-08-09T07:51:10.074Z,27.74
2022-08-09T07:54:04.916Z,27.87
2022-08-09T07:56:39.001Z,28.16
2022-08-09T07:59:34.063Z,28.15
2022-08-09T08:02:16.648Z,27.66
2022-08-09T08:04:49.338Z,27.75
2022-08-09T08:08:45.159Z,27.00
2022-08-09T08:10:11.451Z,27.86
2022-08-09T08:12:45.138Z,27.75
2022-08-09T08:15:23.273Z,28.09
2022-08-09T08:17:58.691Z,28.47
2022-08-09T08:20:32.355Z,28.87
2022-08-09T08:23:16.294Z,28.67
2022-08-09T08:25:48.528Z,29.14
2022-08-09T08:28:35.953Z,28.56
2022-08-09T08:31:10.621Z,28.79
2022-08-09T08:33:52.630Z,29.12
2022-08-09T08:36:28.790Z,29.39
2022-08-09T08:38:58.360Z,28.97
2022-08-09T08:41:30.812Z,29.66
2022-08-09T08:44:16.774Z,29.50
2022-08-09T08:46:59.974Z,29.28
2022-08-09T08:49:47.210Z,29.08
2022-08-09T08:52:53.374Z,28.82
2022-08-09T08:55:10.607Z,29.13
2022-08-09T08:57:39.018Z,30.09
2022-08-09T09:00:20.791Z,29.92
2022-08-09T09:03:08.250Z,29.87
2022-08-09T09:06:00.347Z,30.19
2022-08-09T09:08:40.336Z,29.23
2022-08-09T09:11:13.877Z,28.94
2022-08-09T09:13:57.063Z,28.96
2022-08-09T09:16:34.122Z,29.29
2022-08-09T09:19:37.389Z,30.37
2022-08-09T09:22:05.522Z,31.00
2022-08-09T09:24:43.276Z,31.02
2022-08-09T09:28:03.910Z,30.38
2022-08-09T09:30:32.901Z,29.94
2022-08-09T09:33:15.366Z,30.26
2022-08-09T09:36:01.703Z,30.55
2022-08-09T09:38:46.644Z,31.26
2022-08-09T09:41:32.942Z,31.37
2022-08-09T09:44:12.186Z,30.79
2022-08-09T09:46:51.757Z,30.37
2022-08-09T09:50:06.789Z,30.24
2022-08-09T09:52:33.632Z,31.20
2022-08-09T09:55:16.027Z,31.27
2022-08-09T09:58:12.506Z,30.49
2022-08-09T10:00:59.439Z,30.45
2022-08-09T10:03:57.801Z,30.23
2022-08-09T10:06:42.868Z,29.99
2022-08-09T10:09:22.504Z,29.10
2022-08-09T10:12:14.666Z,29.95
2022-08-09T10:14:51.957Z,30.19
2022-08-09T10:17:54.920Z,30.53
2022-08-09T10:20:26.962Z,30.62
2022-08-09T10:23:21.078Z,30.67
2022-08-09T10:26:07.260Z,30.79
2022-08-09T10:28:48.654Z,31.20
2022-08-09T10:34:33.073Z,29.52
2022-08-09T10:37:00.488Z,29.35
2022-08-09T10:39:30.171Z,29.85
2022-08-09T10:42:10.016Z,29.75
2022-08-09T10:44:39.972Z,29.75
2022-08-09T10:48:26.033Z,28.67
2022-08-09T10:51:15.586Z,28.86
2022-08-09T10:54:13.970Z,29.88
2022-08-09T10:56:43.411Z,30.27
2022-08-09T10:59:30.952Z,30.52
2022-08-09T11:03:15.571Z,30.97
2022-08-09T11:05:25.312Z,31.37
2022-08-09T11:08:18.686Z,31.51
2022-08-09T11:11:00.751Z,31.49
2022-08-09T11:13:50.174Z,32.02
2022-08-09T11:16:39.294Z,32.12
2022-08-09T11:19:10.946Z,30.88
2022-08-09T11:22:05.239Z,30.19
2022-08-09T11:25:19.039Z,30.23
2022-08-09T11:28:08.182Z,30.94
2022-08-09T11:30:48.009Z,31.44
2022-08-09T11:33:19.867Z,31.33
2022-08-09T11:35:59.760Z,31.27
2022-08-09T11:38:34.154Z,31.04
2022-08-09T11:41:38.549Z,31.10
2022-08-09T11:44:09.577Z,31.49
2022-08-09T11:47:00.754Z,31.74
2022-08-09T11:50:55.584Z,31.98
2022-08-09T11:53:28.248Z,32.78
2022-08-09T11:56:02.825Z,32.67
2022-08-09T11:58:33.699Z,31.41
2022-08-09T12:01:15.729Z,31.05
2022-08-09T12:04:06.626Z,30.96
2022-08-09T12:06:39.620Z,31.11
2022-08-09T12:09:28.153Z,29.57
2022-08-09T12:12:12.290Z,31.30
2022-08-09T12:15:04.002Z,31.56
2022-08-09T12:17:43.689Z,32.31
2022-08-09T12:20:25.728Z,31.97
2022-08-09T12:23:01.429Z,31.71
2022-08-09T12:25:37.447Z,31.54
2022-08-09T12:29:13.271Z,31.65
2022-08-09T12:31:30.843Z,31.16
2022-08-09T12:34:05.499Z,30.39
2022-08-09T12:36:36.238Z,30.61
2022-08-09T12:39:13.588Z,30.20
2022-08-09T12:41:42.212Z,29.87
2022-08-09T12:44:13.281Z,29.96
2022-08-09T12:46:48.655Z,29.82
2022-08-09T12:49:18.653Z,29.50
2022-08-09T12:52:02.416Z,29.29
2022-08-09T12:56:10.631Z,29.55
2022-08-09T12:57:47.224Z,29.31
2022-08-09T13:00:25.124Z,29.13
2022-08-09T13:03:00.633Z,29.07
2022-08-09T13:06:14.746Z,29.22
2022-08-09T13:08:39.821Z,29.71
2022-08-09T13:11:22.621Z,30.03
2022-08-09T13:14:41.025Z,30.58
2022-08-09T13:16:50.286Z,31.72
2022-08-09T13:20:08.621Z,32.09
2022-08-09T13:22:37.551Z,31.62
2022-08-09T13:25:15.110Z,30.78
2022-08-09T13:27:48.814Z,30.17
2022-08-09T13:30:50.004Z,29.35
2022-08-09T13:33:24.385Z,28.99
2022-08-09T13:36:38.602Z,28.67
2022-08-09T13:38:54.938Z,28.67
2022-08-09T13:41:58.539Z,28.34
2022-08-09T13:44:17.102Z,28.19
2022-08-09T13:47:29.233Z,27.98
2022-08-09T13:49:39.933Z,27.82
2022-08-09T13:52:25.052Z,27.95
2022-08-09T13:54:59.008Z,27.58
2022-08-09T13:57:36.248Z,27.63
2022-08-09T14:00:15.770Z,27.53
2022-08-09T14:03:03.189Z,27.33
2022-08-09T14:05:59.585Z,27.63
2022-08-09T14:08:24.056Z,27.70
2022-08-09T14:10:55.787Z,27.66
2022-08-09T14:14:16.011Z,27.76
2022-08-09T14:16:17.283Z,27.79
2022-08-09T14:18:51.864Z,27.49
2022-08-09T14:21:23.459Z,27.24
2022-08-09T14:23:57.054Z,26.92
2022-08-09T14:26:33.770Z,27.08
2022-08-09T14:29:08.196Z,27.09
2022-08-09T14:31:54.754Z,27.11
2022-08-09T14:34:32.392Z,26.88
2022-08-09T14:37:06.741Z,26.75
2022-08-09T14:39:47.869Z,26.99
2022-08-09T14:42:28.886Z,27.20
2022-08-09T14:46:40.361Z,26.78
2022-08-09T14:47:59.124Z,26.59
2022-08-09T14:50:31.285Z,26.47
2022-08-09T14:53:13.899Z,26.53
2022-08-09T14:55:50.217Z,26.82
2022-08-09T14:58:19.276Z,26.77
2022-08-09T15:00:48.432Z,26.71
2022-08-09T15:03:20.925Z,26.84
2022-08-09T15:05:52.613Z,26.91
2022-08-09T15:08:25.035Z,27.08
2022-08-09T15:11:00.817Z,27.18
2022-08-09T15:13:48.479Z,26.92
2022-08-09T15:16:18.781Z,27.31
2022-08-09T15:18:48.980Z,27.37
2022-08-09T15:21:56.349Z,27.32
2022-08-09T15:24:12.603Z,27.28
2022-08-09T15:26:45.384Z,27.20
2022-08-09T15:30:56.212Z,27.26
2022-08-09T15:32:04.686Z,26.92
2022-08-09T15:34:35.352Z,27.07
2022-08-09T15:37:37.702Z,27.14
2022-08-09T15:40:19.844Z,26.93
2022-08-09T15:42:51.045Z,26.70
2022-08-09T15:45:29.320Z,26.26
2022-08-09T15:48:06.666Z,26.01
2022-08-09T15:50:46.834Z,26.03
2022-08-09T15:53:17.947Z,25.79
2022-08-09T15:56:29.116Z,25.90
2022-08-09T15:58:55.871Z,25.89
2022-08-09T16:01:24.306Z,25.93
2022-08-09T16:03:52.433Z,26.02
2022-08-09T16:06:32.580Z,25.84
2022-08-09T16:09:05.521Z,26.08
2022-08-09T16:11:34.176Z,26.09
2022-08-09T16:14:09.032Z,26.11
2022-08-09T16:16:45.820Z,25.98
2022-08-09T16:19:16.783Z,25.95
2022-08-09T16:21:51.943Z,25.75
2022-08-09T16:24:33.204Z,26.08
2022-08-09T16:27:06.492Z,25.93
2022-08-09T16:29:49.642Z,26.38
2022-08-09T16:32:34.130Z,26.07
2022-08-09T16:35:08.312Z,26.09
2022-08-09T16:37:54.756Z,26.15
2022-08-09T16:40:40.427Z,26.52
2022-08-09T16:43:09.686Z,26.70
2022-08-09T16:45:43.848Z,26.05
2022-08-09T16:48:43.056Z,25.71
2022-08-09T16:51:08.486Z,25.38
2022-08-09T16:54:26.296Z,25.35
2022-08-09T16:56:50.214Z,25.62
2022-08-09T16:59:18.299Z,26.34
2022-08-09T17:01:51.026Z,26.60
2022-08-09T17:04:25.978Z,26.22
2022-08-09T17:08:40.684Z,26.35
2022-08-09T17:09:47.476Z,26.44
2022-08-09T17:12:16.380Z,26.38
2022-08-09T17:14:49.059Z,26.27
2022-08-09T17:17:26.847Z,25.76
2022-08-09T17:20:30.297Z,25.34
2022-08-09T17:22:52.308Z,24.98
2022-08-09T17:25:23.692Z,25.13
2022-08-09T17:27:55.137Z,24.89
2022-08-09T17:30:31.011Z,24.72
2022-08-09T17:33:05.644Z,24.09
2022-08-09T17:35:51.386Z,23.29
2022-08-09T17:38:32.230Z,23.21
2022-08-09T17:41:03.223Z,22.86
2022-08-09T17:43:38.882Z,22.60
2022-08-09T17:46:09.832Z,22.32
2022-08-09T17:48:52.157Z,22.07
2022-08-09T17:51:22.237Z,21.87
2022-08-09T17:53:55.794Z,21.42
2022-08-09T17:56:29.226Z,21.46
2022-08-09T17:59:11.363Z,21.10
2022-08-09T18:02:07.895Z,21.15
2022-08-09T18:04:29.965Z,20.97
2022-08-09T18:06:59.401Z,20.85
2022-08-09T18:09:40.107Z,20.58
2022-08-09T18:12:20.066Z,20.39
2022-08-09T18:14:54.956Z,20.44
2022-08-09T18:18:02.984Z,20.40
2022-08-09T18:20:57.268Z,20.35
2022-08-09T18:23:07.169Z,20.32
2022-08-09T18:25:52.743Z,20.35
2022-08-09T18:30:39.093Z,20.17
2022-08-09T18:31:24.959Z,20.41
2022-08-09T18:34:05.131Z,20.40
2022-08-09T18:36:34.808Z,19.79
2022-08-09T18:39:15.927Z,19.74
2022-08-09T18:41:53.327Z,19.65
2022-08-09T18:44:25.466Z,19.48
2022-08-09T18:47:07.365Z,19.77
2022-08-09T18:49:41.733Z,19.69
2022-08-09T18:52:28.412Z,19.81
2022-08-09T18:55:05.029Z,19.83
2022-08-09T18:57:42.630Z,19.73
2022-08-09T19:00:20.413Z,19.41
2022-08-09T19:02:50.976Z,19.63
2022-08-09T19:05:48.738Z,19.52
2022-08-09T19:08:14.203Z,19.48
2022-08-09T19:10:48.334Z,19.42
2022-08-09T19:13:23.587Z,19.35
2022-08-09T19:16:05.263Z,19.34
2022-08-09T19:18:38.527Z,19.15
2022-08-09T19:21:10.661Z,19.32
2022-08-09T19:24:37.355Z,19.28
2022-08-09T19:26:34.840Z,19.27
2022-08-09T19:29:15.766Z,19.11
2022-08-09T19:31:51.508Z,19.34
2022-08-09T19:34:22.698Z,19.26
2022-08-09T19:36:54.091Z,19.24
2022-08-09T19:39:43.413Z,19.21
2022-08-09T19:42:15.322Z,18.83
2022-08-09T19:44:51.249Z,18.93
2022-08-09T19:47:23.590Z,19.08
2022-08-09T19:50:08.754Z,19.06
2022-08-09T19:52:51.997Z,18.90
2022-08-09T19:55:25.571Z,18.96
2022-08-09T19:57:59.255Z,18.61
2022-08-09T20:00:27.747Z,18.79
2022-08-09T20:04:12.455Z,18.78
2022-08-09T20:05:46.951Z,18.51
2022-08-09T20:08:33.525Z,18.64
2022-08-09T20:11:04.993Z,18.36
2022-08-09T20:13:36.819Z,18.50
2022-08-09T20:16:34.580Z,18.30
2022-08-09T20:19:42.757Z,18.39
2022-08-09T20:21:56.391Z,18.01
2022-08-09T20:24:29.500Z,18.11
2022-08-09T20:27:05.737Z,18.24
2022-08-09T20:29:39.366Z,18.17
2022-08-09T20:32:28.967Z,17.97
2022-08-09T20:34:59.897Z,18.01
2022-08-09T20:38:18.462Z,18.07
2022-08-09T20:40:27.511Z,18.01
2022-08-09T20:43:19.098Z,17.94
2022-08-09T20:46:01.201Z,17.74
2022-08-09T20:48:38.712Z,18.05
2022-08-09T20:51:07.590Z,17.21
2022-08-09T20:53:48.720Z,17.97
2022-08-09T20:56:20.707Z,17.99
2022-08-09T20:58:54.718Z,17.98
2022-08-09T21:01:34.444Z,17.93
2022-08-09T21:05:54.548Z,17.67
2022-08-09T21:07:11.498Z,17.87
2022-08-09T21:09:45.683Z,17.85
2022-08-09T21:15:23.347Z,17.23
2022-08-09T21:18:20.799Z,17.60
2022-08-09T21:20:53.864Z,17.75
2022-08-09T21:23:26.402Z,17.83
2022-08-09T21:26:12.567Z,17.85
2022-08-09T21:28:55.374Z,17.82
2022-08-09T21:31:24.731Z,17.81
2022-08-09T21:34:13.114Z,17.90
2022-08-09T21:36:55.406Z,17.92
2022-08-09T21:39:27.711Z,17.94
2022-08-09T21:42:04.353Z,17.90
2022-08-09T21:44:35.996Z,17.92
2022-08-09T21:47:09.372Z,17.62
2022-08-09T21:49:43.144Z,17.80
2022-08-09T21:52:20.951Z,17.92
2022-08-09T21:54:59.582Z,17.94
2022-08-09T21:57:59.458Z,17.83
2022-08-09T22:00:36.073Z,17.58
2022-08-09T22:03:19.382Z,17.81
2022-08-09T22:05:55.215Z,17.74
2022-08-09T22:08:26.199Z,17.68
2022-08-09T22:11:49.173Z,17.49
2022-08-09T22:13:44.807Z,17.35
2022-08-09T22:16:12.835Z,17.59
2022-08-09T22:18:54.356Z,17.57
2022-08-09T22:21:50.322Z,17.32
2022-08-09T22:24:21.111Z,17.48
2022-08-09T22:26:54.469Z,17.44
2022-08-09T22:29:28.420Z,17.40
2022-08-09T22:32:29.416Z,17.32
2022-08-09T22:35:06.042Z,17.00
2022-08-09T22:37:40.239Z,17.08
2022-08-09T22:40:19.990Z,16.69
2022-08-09T22:42:48.758Z,16.81
2022-08-09T22:48:15.225Z,16.71
2022-08-09T22:48:19.367Z,16.60
2022-08-09T22:50:53.830Z,16.30
2022-08-09T22:53:22.094Z,16.21
2022-08-09T22:56:29.998Z,16.40
2022-08-09T22:58:39.306Z,16.32
2022-08-09T23:01:08.481Z,16.00
2022-08-09T23:04:05.666Z,16.19
2022-08-09T23:06:35.073Z,16.10
2022-08-09T23:09:07.517Z,16.07
2022-08-09T23:11:35.731Z,15.98
2022-08-09T23:14:09.888Z,15.65
2022-08-09T23:16:45.892Z,15.65
2022-08-09T23:19:13.998Z,15.57
2022-08-09T23:21:42.117Z,15.79
2022-08-09T23:24:11.210Z,15.55
2022-08-09T23:26:40.563Z,15.69
2022-08-09T23:29:13.881Z,15.58
2022-08-09T23:31:42.532Z,15.36
2022-08-09T23:34:10.829Z,15.40
2022-08-09T23:36:39.128Z,15.12
2022-08-09T23:39:08.322Z,15.31
2022-08-09T23:41:36.427Z,14.96
2022-08-09T23:44:05.270Z,15.27
2022-08-09T23:46:33.894Z,15.23
2022-08-09T23:49:02.870Z,14.86
2022-08-09T23:51:31.392Z,15.16
2022-08-09T23:54:02.395Z,14.85
2022-08-09T23:56:52.145Z,15.01
2022-08-09T23:59:24.447Z,14.99
